Hovedside
METAR-TAF:

METAR-TAF

Lufthavner :

Aoba, Vanuatu

breddegrad: 15-18-24S, lengdegrad: 167-58-02E, høyde over havet: 51 m

Gjeldene værobservasjon

Denne rapporten ble laget for 18 timer og 46 minutter siden, klokken 00:00 UTC
Vind 2 kt fra skiftende retning
Temperatur 30°C
Luftfuktighet 79%
Trykk 1009 hPa
Sikt 10 km eller mer
Brutte skyer i en høyde av 2000 ft

METAR: NVSG 150000Z VRB02KT 9999 BKN020 30/26 Q1009

Tid: 05:46 (18:46 UTC)

Varsel

Denne rapporten ble laget for 1 time og 46 minutter siden, klokken 17:00 UTC
Varsel gyldig fra 15. klokken 18 UTC til 16. klokken 18 UTC
Vind 4 kt fra skiftende retning
Sikt: 9000 m
Brutte skyer i en høyde av 2000 ft
Brutte skyer i en høyde av 1800 ft
Overskyet i en høyde av 4000 ft
lette regnbyger,

TAF: NVSG 151700Z 1518/1618 VRB04KT 9999 BKN020 INTER 1518/1524 9000 -SHRA BKN018 OVC040

Værobservasjoner og værvarsel for over 4000 flyplasser (METAR- og TAF-rapporter).

Tilgjengelige stasjoner er representert av de røde og gule prikkene på kartet.

Hold musepekeren over prikken for å se navnet på stasjonen.

Klikk så for å se værobservasjoner og -varsler.

For å forandre kartet kan du klikke på den grønne knappen med svart kryss for å zoome inn, på den grønne knappen med strek for å zoome ut, eller på de grønne pilene for å se tilstøtende kart.


METAR-TAF: